createdAt,value
2018-04-01T00:00:20.211Z,7.50
2018-04-01T00:02:47.167Z,7.40
2018-04-01T00:05:14.119Z,7.30
2018-04-01T00:07:41.864Z,7.10
2018-04-01T00:10:10.335Z,7.00
2018-04-01T00:12:37.295Z,7.00
2018-04-01T00:15:04.259Z,7.00
2018-04-01T00:17:31.983Z,6.90
2018-04-01T00:19:58.936Z,6.90
2018-04-01T00:22:25.882Z,6.90
2018-04-01T00:24:52.839Z,6.90
2018-04-01T00:27:19.793Z,6.90
2018-04-01T00:29:47.523Z,6.90
2018-04-01T00:32:14.483Z,6.90
2018-04-01T00:34:41.427Z,6.90
2018-04-01T00:37:08.389Z,6.90
2018-04-01T00:39:35.356Z,6.90
2018-04-01T00:42:03.327Z,6.90
2018-04-01T00:44:31.199Z,6.90
2018-04-01T00:46:58.151Z,6.90
2018-04-01T00:49:25.107Z,6.90
2018-04-01T00:51:52.075Z,6.90
2018-04-01T00:54:19.042Z,6.80
2018-04-01T00:56:46.000Z,6.70
2018-04-01T00:59:13.722Z,6.70
2018-04-01T01:01:40.673Z,6.70
2018-04-01T01:04:07.642Z,6.70
2018-04-01T01:06:34.574Z,6.70
2018-04-01T01:09:01.552Z,6.60
2018-04-01T01:11:28.502Z,6.60
2018-04-01T01:13:56.200Z,6.50
2018-04-01T01:16:23.163Z,6.50
2018-04-01T01:18:50.136Z,6.50
2018-04-01T01:21:18.300Z,6.20
2018-04-01T01:23:45.251Z,6.20
2018-04-01T01:26:13.715Z,5.90
2018-04-01T01:28:41.067Z,5.90
2018-04-01T01:31:08.012Z,5.90
2018-04-01T01:33:34.959Z,5.90
2018-04-01T01:36:01.933Z,5.80
2018-04-01T01:38:30.390Z,5.80
2018-04-01T01:40:57.342Z,5.70
2018-04-01T01:43:24.294Z,5.70
2018-04-01T01:45:51.248Z,5.60
2018-04-01T01:48:19.707Z,5.50
2018-04-01T01:50:46.655Z,5.40
2018-04-01T01:53:13.610Z,5.40
2018-04-01T01:55:40.556Z,5.40
2018-04-01T01:58:09.048Z,5.30
2018-04-01T02:00:36.766Z,5.30
2018-04-01T02:03:03.711Z,5.20
2018-04-01T02:05:30.664Z,5.20
2018-04-01T02:07:57.607Z,5.20
2018-04-01T02:10:24.572Z,5.20
2018-04-01T02:12:51.528Z,5.20
2018-04-01T02:15:19.238Z,5.10
2018-04-01T02:17:46.195Z,5.10
2018-04-01T02:20:13.167Z,5.10
2018-04-01T02:22:40.121Z,5.10
2018-04-01T02:25:07.072Z,5.10
2018-04-01T02:27:35.117Z,5.20
2018-04-01T02:30:02.676Z,5.10
2018-04-01T02:32:29.620Z,5.10
2018-04-01T02:34:56.580Z,5.10
2018-04-01T02:37:23.535Z,5.10
2018-04-01T02:39:52.007Z,4.90
2018-04-01T02:42:18.964Z,4.90
2018-04-01T02:44:47.416Z,4.90
2018-04-01T02:47:14.375Z,4.90
2018-04-01T02:49:41.320Z,4.90
2018-04-01T02:52:09.027Z,4.90
2018-04-01T02:54:35.976Z,5.00
2018-04-01T02:57:02.941Z,5.00
2018-04-01T02:59:29.879Z,5.00
2018-04-01T03:01:56.825Z,5.00
2018-04-01T03:04:23.783Z,5.00
2018-04-01T03:06:50.731Z,5.00
2018-04-01T03:09:17.680Z,5.00
2018-04-01T03:11:44.631Z,4.90
2018-04-01T03:14:11.871Z,5.00
2018-04-01T03:16:38.887Z,4.90
2018-04-01T03:19:05.839Z,4.80
2018-04-01T03:21:32.796Z,4.80
2018-04-01T03:23:59.767Z,4.80
2018-04-01T03:26:26.731Z,4.80
2018-04-01T03:28:53.683Z,4.80
2018-04-01T03:31:21.408Z,4.90
2018-04-01T03:33:48.360Z,4.80
2018-04-01T03:36:15.311Z,4.80
2018-04-01T03:38:42.320Z,4.80
2018-04-01T03:41:09.295Z,4.80
2018-04-01T03:43:36.247Z,4.80
2018-04-01T03:46:03.395Z,4.80
2018-04-01T03:48:30.347Z,4.90
2018-04-01T03:50:57.312Z,4.80
2018-04-01T03:53:25.780Z,4.80
2018-04-01T03:55:52.732Z,4.80
2018-04-01T03:58:19.681Z,4.70
2018-04-01T04:00:47.441Z,4.60
2018-04-01T04:03:14.688Z,4.60
2018-04-01T04:05:41.700Z,4.60
2018-04-01T04:08:08.640Z,4.60
2018-04-01T04:10:35.610Z,4.50
2018-04-01T04:13:02.558Z,4.50
2018-04-01T04:15:29.505Z,4.60
2018-04-01T04:17:56.469Z,4.50
2018-04-01T04:20:24.927Z,4.50
2018-04-01T04:22:51.882Z,4.50
2018-04-01T04:25:18.839Z,4.60
2018-04-01T04:27:45.788Z,4.50
2018-04-01T04:30:13.502Z,4.40
2018-04-01T04:32:40.455Z,4.40
2018-04-01T04:35:07.416Z,4.30
2018-04-01T04:37:34.566Z,4.30
2018-04-01T04:40:01.520Z,4.40
2018-04-01T04:42:28.466Z,4.40
2018-04-01T04:44:55.428Z,4.40
2018-04-01T04:47:23.143Z,4.30
2018-04-01T04:49:50.398Z,4.30
2018-04-01T04:52:17.347Z,4.30
2018-04-01T04:54:44.299Z,4.40
2018-04-01T04:57:11.267Z,4.40
2018-04-01T04:59:38.219Z,4.40
2018-04-01T05:02:05.171Z,4.40
2018-04-01T05:04:32.903Z,4.40
2018-04-01T05:06:59.855Z,4.40
2018-04-01T05:09:26.819Z,4.30
2018-04-01T05:11:54.544Z,4.20
2018-04-01T05:14:21.499Z,4.20
2018-04-01T05:16:48.863Z,4.20
2018-04-01T05:19:15.815Z,4.40
2018-04-01T05:21:42.772Z,4.50
2018-04-01T05:24:09.739Z,4.70
2018-04-01T05:26:37.459Z,5.20
2018-04-01T05:29:04.812Z,5.20
2018-04-01T05:31:31.760Z,5.40
2018-04-01T05:33:58.700Z,5.60
2018-04-01T05:36:25.695Z,6.00
2018-04-01T05:38:53.403Z,6.40
2018-04-01T05:41:20.359Z,6.40
2018-04-01T05:43:47.320Z,6.70
2018-04-01T05:46:15.780Z,7.00
2018-04-01T05:48:42.751Z,7.00
2018-04-01T05:51:10.469Z,6.70
2018-04-01T05:53:37.423Z,6.70
2018-04-01T05:56:04.383Z,6.40
2018-04-01T05:58:31.691Z,6.20
2018-04-01T06:00:58.644Z,6.20
2018-04-01T06:03:25.599Z,6.10
2018-04-01T06:05:52.559Z,6.00
2018-04-01T06:08:19.516Z,5.90
2018-04-01T06:10:46.472Z,5.80
2018-04-01T06:13:13.607Z,5.90
2018-04-01T06:15:40.563Z,5.90
2018-04-01T06:18:07.526Z,5.80
2018-04-01T06:20:35.278Z,5.80
2018-04-01T06:23:02.227Z,5.80
2018-04-01T06:25:29.492Z,5.80
2018-04-01T06:27:57.215Z,5.90
2018-04-01T06:30:24.163Z,5.80
2018-04-01T06:32:51.223Z,5.90
2018-04-01T06:35:18.171Z,5.90
2018-04-01T06:37:45.131Z,6.00
2018-04-01T06:40:13.600Z,6.20
2018-04-01T06:42:40.568Z,6.20
2018-04-01T06:45:08.616Z,6.30
2018-04-01T06:47:36.176Z,6.30
2018-04-01T06:50:03.608Z,6.30
2018-04-01T06:52:30.551Z,6.20
2018-04-01T06:54:57.518Z,6.10
2018-04-01T06:57:24.471Z,6.00
2018-04-01T06:59:51.428Z,5.90
2018-04-01T07:02:18.755Z,5.50
2018-04-01T07:04:45.739Z,5.20
2018-04-01T07:07:12.664Z,5.00
2018-04-01T07:09:39.628Z,4.90
2018-04-01T07:12:07.431Z,4.60
2018-04-01T07:14:35.175Z,4.50
2018-04-01T07:17:02.128Z,4.50
2018-04-01T07:19:29.085Z,4.60
2018-04-01T07:21:56.056Z,4.60
2018-04-01T07:24:23.011Z,4.60
2018-04-01T07:26:49.983Z,4.70
2018-04-01T07:29:16.935Z,4.80
2018-04-01T07:31:44.651Z,5.00
2018-04-01T07:34:11.625Z,5.00
2018-04-01T07:36:38.583Z,5.00
2018-04-01T07:39:06.300Z,5.10
2018-04-01T07:41:33.262Z,5.00
2018-04-01T07:44:00.217Z,5.00
2018-04-01T07:46:27.180Z,5.00
2018-04-01T07:48:54.924Z,5.00
2018-04-01T07:51:21.883Z,5.00
2018-04-01T07:53:49.611Z,5.10
2018-04-01T07:56:16.566Z,5.10
2018-04-01T07:58:43.545Z,5.00
2018-04-01T08:01:11.264Z,5.10
2018-04-01T08:03:38.215Z,5.10
2018-04-01T08:06:06.867Z,5.30
2018-04-01T08:08:33.820Z,5.30
2018-04-01T08:11:00.779Z,5.60
2018-04-01T08:13:28.048Z,5.90
2018-04-01T08:15:54.999Z,6.10
2018-04-01T08:18:21.980Z,6.30
2018-04-01T08:20:49.706Z,6.30
2018-04-01T08:23:16.651Z,6.30
2018-04-01T08:25:43.604Z,6.40
2018-04-01T08:28:10.563Z,6.40
2018-04-01T08:30:37.519Z,6.40
2018-04-01T08:33:05.253Z,6.50
2018-04-01T08:35:32.187Z,6.50
2018-04-01T08:37:59.159Z,6.40
2018-04-01T08:40:26.112Z,6.30
2018-04-01T08:42:53.071Z,6.60
2018-04-01T08:45:20.787Z,6.90
2018-04-01T08:47:48.322Z,6.90
2018-04-01T08:50:15.396Z,6.90
2018-04-01T08:52:42.347Z,7.00
2018-04-01T08:55:09.300Z,7.50
2018-04-01T08:57:36.259Z,7.90
2018-04-01T09:00:03.792Z,7.80
2018-04-01T09:02:31.651Z,8.50
2018-04-01T09:04:58.594Z,9.80
2018-04-01T09:07:25.555Z,10.60
2018-04-01T09:09:52.512Z,10.80
2018-04-01T09:12:19.480Z,11.30
2018-04-01T09:14:47.691Z,12.90
2018-04-01T09:17:14.652Z,12.90
2018-04-01T09:19:41.621Z,13.90
2018-04-01T09:22:08.581Z,13.70
2018-04-01T09:24:36.292Z,13.60
2018-04-01T09:27:03.240Z,13.60
2018-04-01T09:29:30.260Z,14.00
2018-04-01T09:31:57.990Z,13.20
2018-04-01T09:34:24.931Z,13.20
2018-04-01T09:36:51.927Z,13.10
2018-04-01T09:39:19.603Z,13.70
2018-04-01T09:41:46.563Z,13.70
2018-04-01T09:44:13.528Z,13.30
2018-04-01T09:46:40.835Z,12.70
2018-04-01T09:49:07.792Z,12.30
2018-04-01T09:51:34.747Z,12.40
2018-04-01T09:54:01.703Z,13.10
2018-04-01T09:56:28.660Z,13.20
2018-04-01T09:58:55.627Z,12.30
2018-04-01T10:01:23.835Z,12.70
2018-04-01T10:03:51.279Z,12.70
2018-04-01T10:06:18.739Z,12.40
2018-04-01T10:08:46.218Z,12.10
2018-04-01T10:11:14.408Z,11.00
2018-04-01T10:13:41.864Z,11.00
2018-04-01T10:16:09.299Z,10.70
2018-04-01T10:18:36.755Z,10.80
2018-04-01T10:21:04.643Z,11.00
2018-04-01T10:23:32.090Z,10.70
2018-04-01T10:25:59.540Z,10.10
2018-04-01T10:28:26.979Z,9.90
2018-04-01T10:30:54.448Z,9.10
2018-04-01T10:33:21.883Z,8.50
2018-04-01T10:35:49.805Z,8.20
2018-04-01T10:38:17.256Z,7.60
2018-04-01T10:40:44.695Z,7.10
2018-04-01T10:43:12.142Z,6.80
2018-04-01T10:45:39.587Z,6.70
2018-04-01T10:48:07.039Z,6.70
2018-04-01T10:50:34.511Z,6.30
2018-04-01T10:53:01.967Z,6.10
2018-04-01T10:55:29.636Z,5.80
2018-04-01T10:57:56.596Z,5.80
2018-04-01T11:00:23.556Z,5.80
2018-04-01T11:02:50.506Z,6.00
2018-04-01T11:05:17.479Z,6.20
2018-04-01T11:07:45.205Z,7.10
2018-04-01T11:10:12.163Z,7.00
2018-04-01T11:12:39.134Z,7.30
2018-04-01T11:15:06.839Z,7.30
2018-04-01T11:17:33.807Z,7.30
2018-04-01T11:20:02.260Z,7.20
2018-04-01T11:22:29.211Z,7.20
2018-04-01T11:24:56.167Z,7.20
2018-04-01T11:27:23.164Z,7.20
2018-04-01T11:29:51.188Z,6.60
2018-04-01T11:32:18.142Z,6.60
2018-04-01T11:34:45.087Z,6.50
2018-04-01T11:37:12.041Z,6.50
2018-04-01T11:39:38.984Z,6.40
2018-04-01T11:42:05.926Z,6.30
2018-04-01T11:44:32.892Z,6.10
2018-04-01T11:47:00.612Z,6.30
2018-04-01T11:49:27.586Z,6.20
2018-04-01T11:51:54.523Z,6.80
2018-04-01T11:54:22.452Z,7.60
2018-04-01T11:56:49.465Z,7.90
2018-04-01T11:59:16.363Z,8.00
2018-04-01T12:01:43.336Z,7.80
2018-04-01T12:04:10.289Z,7.60
2018-04-01T12:06:37.246Z,7.50
2018-04-01T12:09:04.955Z,7.40
2018-04-01T12:11:31.912Z,7.40
2018-04-01T12:13:58.877Z,7.60
2018-04-01T12:16:25.836Z,8.10
2018-04-01T12:18:52.792Z,8.70
2018-04-01T12:21:20.515Z,10.20
2018-04-01T12:23:47.472Z,10.20
2018-04-01T12:26:14.423Z,10.90
2018-04-01T12:28:41.380Z,10.70
2018-04-01T12:31:08.336Z,10.80
2018-04-01T12:33:36.071Z,12.20
2018-04-01T12:36:03.039Z,12.20
2018-04-01T12:38:30.756Z,11.90
2018-04-01T12:40:57.719Z,11.90
2018-04-01T12:43:24.667Z,11.70
2018-04-01T12:45:52.397Z,11.60
2018-04-01T12:48:19.348Z,11.10
2018-04-01T12:50:46.315Z,10.50
2018-04-01T12:53:13.331Z,10.10
2018-04-01T12:55:40.297Z,9.70
2018-04-01T12:58:07.661Z,9.60
2018-04-01T13:00:34.611Z,9.90
2018-04-01T13:03:01.596Z,10.10
2018-04-01T13:05:29.311Z,10.20
2018-04-01T13:07:56.317Z,10.20
2018-04-01T13:10:23.280Z,10.20
2018-04-01T13:12:50.256Z,10.40
2018-04-01T13:15:17.285Z,10.40
2018-04-01T13:17:44.293Z,10.20
2018-04-01T13:20:12.003Z,9.80
2018-04-01T13:22:38.965Z,9.80
2018-04-01T13:25:06.686Z,9.30
2018-04-01T13:27:33.636Z,9.30
2018-04-01T13:30:00.912Z,9.20
2018-04-01T13:32:27.859Z,9.60
2018-04-01T13:34:54.811Z,10.00
2018-04-01T13:37:21.791Z,10.30
2018-04-01T13:39:49.518Z,9.90
2018-04-01T13:42:16.471Z,9.90
2018-04-01T13:44:44.251Z,10.00
2018-04-01T13:47:11.211Z,10.40
2018-04-01T13:49:38.956Z,10.20
2018-04-01T13:52:05.900Z,10.20
2018-04-01T13:54:32.847Z,10.90
2018-04-01T13:56:59.804Z,11.90
2018-04-01T13:59:27.528Z,13.10
2018-04-01T14:01:54.487Z,13.10
2018-04-01T14:04:21.439Z,12.50
2018-04-01T14:06:48.414Z,12.00
2018-04-01T14:09:16.375Z,10.90
2018-04-01T14:11:44.096Z,10.40
2018-04-01T14:14:11.052Z,10.40
2018-04-01T14:16:38.015Z,10.30
2018-04-01T14:19:05.751Z,10.40
2018-04-01T14:21:32.711Z,10.40
2018-04-01T14:24:00.438Z,10.70
2018-04-01T14:26:27.399Z,10.70
2018-04-01T14:28:54.351Z,10.60
2018-04-01T14:31:21.318Z,10.80
2018-04-01T14:33:48.263Z,10.90
2018-04-01T14:36:15.219Z,11.60
2018-04-01T14:38:42.955Z,11.90
2018-04-01T14:41:10.755Z,11.90
2018-04-01T14:43:38.483Z,11.60
2018-04-01T14:46:05.461Z,11.60
2018-04-01T14:48:32.416Z,11.60
2018-04-01T14:51:00.190Z,11.70
2018-04-01T14:53:27.152Z,11.70
2018-04-01T14:55:54.109Z,11.40
2018-04-01T14:58:21.172Z,10.90
2018-04-01T15:00:48.128Z,10.70
2018-04-01T15:03:16.607Z,9.60
2018-04-01T15:05:44.335Z,9.10
2018-04-01T15:08:11.312Z,9.10
2018-04-01T15:10:38.260Z,9.00
2018-04-01T15:13:05.216Z,8.90
2018-04-01T15:15:33.358Z,8.50
2018-04-01T15:18:00.311Z,8.50
2018-04-01T15:20:27.267Z,8.60
2018-04-01T15:22:54.235Z,8.50
2018-04-01T15:25:21.951Z,8.30
2018-04-01T15:27:48.895Z,8.20
2018-04-01T15:30:15.860Z,8.00
2018-04-01T15:32:42.808Z,8.10
2018-04-01T15:35:09.744Z,8.10
2018-04-01T15:37:36.715Z,8.20
2018-04-01T15:40:04.455Z,8.10
2018-04-01T15:42:31.408Z,8.10
2018-04-01T15:44:58.740Z,8.10
2018-04-01T15:47:25.683Z,7.90
2018-04-01T15:49:52.631Z,7.70
2018-04-01T15:52:19.626Z,7.70
2018-04-01T15:54:47.342Z,7.70
2018-04-01T15:57:14.295Z,7.60
2018-04-01T15:59:41.256Z,7.80
2018-04-01T16:02:08.216Z,8.20
2018-04-01T16:04:36.719Z,9.10
2018-04-01T16:07:04.436Z,9.40
2018-04-01T16:09:31.406Z,9.30
2018-04-01T16:11:59.132Z,8.70
2018-04-01T16:14:26.107Z,8.70
2018-04-01T16:16:53.060Z,8.30
2018-04-01T16:19:20.794Z,8.20
2018-04-01T16:21:47.756Z,8.20
2018-04-01T16:24:16.211Z,8.30
2018-04-01T16:26:43.176Z,8.30
2018-04-01T16:29:10.130Z,8.20
2018-04-01T16:31:37.863Z,7.90
2018-04-01T16:34:04.822Z,7.90
2018-04-01T16:36:31.787Z,7.70
2018-04-01T16:38:59.495Z,7.70
2018-04-01T16:41:26.967Z,7.70
2018-04-01T16:43:53.924Z,7.80
2018-04-01T16:46:20.975Z,7.60
2018-04-01T16:48:47.900Z,7.60
2018-04-01T16:51:14.864Z,7.70
2018-04-01T16:53:41.827Z,7.50
2018-04-01T16:56:08.775Z,7.50
2018-04-01T16:58:37.238Z,7.80
2018-04-01T17:01:04.211Z,7.80
2018-04-01T17:03:32.708Z,7.80
2018-04-01T17:06:00.435Z,7.80
2018-04-01T17:08:27.388Z,7.80
2018-04-01T17:10:54.363Z,7.80
2018-04-01T17:13:22.091Z,7.90
2018-04-01T17:15:49.048Z,7.90
2018-04-01T17:18:17.519Z,7.70
2018-04-01T17:20:44.479Z,7.70
2018-04-01T17:23:12.948Z,7.50
2018-04-01T17:25:39.894Z,7.50
2018-04-01T17:28:06.861Z,7.40
2018-04-01T17:30:34.599Z,7.40
2018-04-01T17:33:01.552Z,7.40
2018-04-01T17:35:29.279Z,7.30
2018-04-01T17:37:56.303Z,7.30
2018-04-01T17:40:23.267Z,7.30
2018-04-01T17:42:50.227Z,7.20
2018-04-01T17:45:17.187Z,7.20
2018-04-01T17:47:44.129Z,7.20
2018-04-01T17:50:11.098Z,7.10
2018-04-01T17:52:39.561Z,7.00
2018-04-01T17:55:06.523Z,7.00
2018-04-01T17:57:35.180Z,7.20
2018-04-01T18:00:02.135Z,7.20
2018-04-01T18:02:29.100Z,7.20
2018-04-01T18:04:56.828Z,7.00
2018-04-01T18:07:23.791Z,7.00
2018-04-01T18:09:50.750Z,7.00
2018-04-01T18:12:19.251Z,7.10
2018-04-01T18:14:46.199Z,7.10
2018-04-01T18:17:13.922Z,7.10
2018-04-01T18:19:40.875Z,7.10
2018-04-01T18:22:07.820Z,7.20
2018-04-01T18:24:35.167Z,7.20
2018-04-01T18:27:02.731Z,7.10
2018-04-01T18:29:29.679Z,7.00
2018-04-01T18:31:56.659Z,7.10
2018-04-01T18:34:24.380Z,7.00
2018-04-01T18:36:51.327Z,7.00
2018-04-01T18:39:18.292Z,6.90
2018-04-01T18:41:46.018Z,6.70
2018-04-01T18:44:12.979Z,6.70
2018-04-01T18:46:39.948Z,6.50
2018-04-01T18:49:08.421Z,6.30
2018-04-01T18:51:35.439Z,6.30
2018-04-01T18:54:02.380Z,6.20
2018-04-01T18:56:29.331Z,6.10
2018-04-01T18:58:56.935Z,6.00
2018-04-01T19:01:24.665Z,5.70
2018-04-01T19:03:51.627Z,5.60
2018-04-01T19:06:19.075Z,5.60
2018-04-01T19:08:46.181Z,5.60
2018-04-01T19:11:13.131Z,5.60
2018-04-01T19:13:40.528Z,5.60
2018-04-01T19:16:07.996Z,5.60
2018-04-01T19:18:35.427Z,5.60
2018-04-01T19:21:02.887Z,5.50
2018-04-01T19:23:30.337Z,5.60
2018-04-01T19:25:57.796Z,5.60
2018-04-01T19:28:25.240Z,5.50
2018-04-01T19:30:52.697Z,5.50
2018-04-01T19:33:20.143Z,5.60
2018-04-01T19:35:47.684Z,5.60
2018-04-01T19:38:15.128Z,5.60
2018-04-01T19:40:43.335Z,5.60
2018-04-01T19:43:10.796Z,5.60
2018-04-01T19:45:38.249Z,5.60
2018-04-01T19:48:05.707Z,5.60
2018-04-01T19:50:33.163Z,5.60
2018-04-01T19:53:00.616Z,5.70
2018-04-01T19:55:28.062Z,5.70
2018-04-01T19:57:55.521Z,5.70
2018-04-01T20:00:22.960Z,5.70
2018-04-01T20:02:51.293Z,5.50
2018-04-01T20:05:18.770Z,5.50
2018-04-01T20:07:46.980Z,5.60
2018-04-01T20:10:14.431Z,5.50
2018-04-01T20:12:41.879Z,5.60
2018-04-01T20:15:10.575Z,5.60
2018-04-01T20:17:38.020Z,5.50
2018-04-01T20:20:06.231Z,5.50
2018-04-01T20:22:33.683Z,5.40
2018-04-01T20:25:01.476Z,5.40
2018-04-01T20:27:28.911Z,5.40
2018-04-01T20:29:56.365Z,5.40
2018-04-01T20:32:23.829Z,5.40
2018-04-01T20:34:51.262Z,5.40
2018-04-01T20:37:18.720Z,5.30
2018-04-01T20:39:46.163Z,5.40
2018-04-01T20:42:14.392Z,5.40
2018-04-01T20:44:41.834Z,5.40
2018-04-01T20:47:09.279Z,5.40
2018-04-01T20:49:36.748Z,5.40
2018-04-01T20:52:04.195Z,5.40
2018-04-01T20:54:31.667Z,5.40
2018-04-01T20:56:59.134Z,5.40
2018-04-01T20:59:26.567Z,5.40
2018-04-01T21:01:54.023Z,5.30
2018-04-01T21:04:21.520Z,5.30
2018-04-01T21:06:48.933Z,5.30
2018-04-01T21:09:16.386Z,5.40
2018-04-01T21:11:43.831Z,5.40
2018-04-01T21:14:11.279Z,5.40
2018-04-01T21:16:39.497Z,5.50
2018-04-01T21:19:06.970Z,5.40
2018-04-01T21:21:34.932Z,5.50
2018-04-01T21:24:02.367Z,5.50
2018-04-01T21:26:29.836Z,5.60
2018-04-01T21:28:57.284Z,5.70
2018-04-01T21:31:24.731Z,5.70
2018-04-01T21:33:52.194Z,5.50
2018-04-01T21:36:19.645Z,5.40
2018-04-01T21:38:47.088Z,5.30
2018-04-01T21:41:14.899Z,5.20
2018-04-01T21:43:42.343Z,5.30
2018-04-01T21:46:09.823Z,5.20
2018-04-01T21:48:37.275Z,5.20
2018-04-01T21:51:05.222Z,5.10
2018-04-01T21:53:32.723Z,4.90
2018-04-01T21:56:00.120Z,4.90
2018-04-01T21:58:27.587Z,5.00
2018-04-01T22:00:55.490Z,4.90
2018-04-01T22:03:22.979Z,4.90
2018-04-01T22:05:51.180Z,4.90
2018-04-01T22:08:18.643Z,5.00
2018-04-01T22:10:46.683Z,5.00
2018-04-01T22:13:14.128Z,5.00
2018-04-01T22:15:42.377Z,5.10
2018-04-01T22:18:09.808Z,5.10
2018-04-01T22:20:37.252Z,5.10
2018-04-01T22:23:13.569Z,5.10
2018-04-01T22:25:41.803Z,4.90
2018-04-01T22:28:09.248Z,4.90
2018-04-01T22:30:36.686Z,4.90
2018-04-01T22:33:04.159Z,5.00
2018-04-01T22:35:31.590Z,4.90
2018-04-01T22:37:59.035Z,4.90
2018-04-01T22:40:28.111Z,4.90
2018-04-01T22:42:55.552Z,4.90
2018-04-01T22:45:23.003Z,4.80
2018-04-01T22:47:50.472Z,4.90
2018-04-01T22:50:17.923Z,4.80
2018-04-01T22:52:45.375Z,4.80
2018-04-01T22:55:12.919Z,4.80
2018-04-01T22:57:40.358Z,4.80
2018-04-01T23:00:07.813Z,4.80
2018-04-01T23:02:35.824Z,4.80
2018-04-01T23:05:03.280Z,4.80
2018-04-01T23:07:30.718Z,4.80
2018-04-01T23:09:58.594Z,4.80
2018-04-01T23:12:26.043Z,4.80
2018-04-01T23:14:53.522Z,4.80
2018-04-01T23:17:20.940Z,4.80
2018-04-01T23:19:48.384Z,4.80
2018-04-01T23:22:16.599Z,4.80
2018-04-01T23:24:44.047Z,4.80
2018-04-01T23:27:11.489Z,4.70
2018-04-01T23:29:38.951Z,4.60
2018-04-01T23:32:06.415Z,4.50
2018-04-01T23:34:33.861Z,4.40
2018-04-01T23:37:01.307Z,4.40
2018-04-01T23:39:28.747Z,4.40
2018-04-01T23:41:56.964Z,4.40
2018-04-01T23:44:24.410Z,4.40
2018-04-01T23:46:51.884Z,4.50
2018-04-01T23:49:19.336Z,4.50
2018-04-01T23:51:46.803Z,4.50
2018-04-01T23:54:14.255Z,4.50
2018-04-01T23:56:41.720Z,4.60
2018-04-01T23:59:09.204Z,4.50
